Time;durP1;ratioP1;P1;durP2;ratioP2;P2;SDS_P1;SDS_P2;PMS_P1;PMS_P2;Temp;Humidity;BMP_temperature;BMP_pressure;BME280_temperature;BME280_humidity;BME280_pressure;Samples;Min_cycle;Max_cycle;Signal;HPM_P1;HPM_P2
2024/02/21 00:01:44;;;;;;;;;0.00;0.00;;;;;12.12;100.00;102310.09;5074560;28;46399;-85
2024/02/21 00:04:17;;;;;;;;;0.00;0.00;;;;;12.07;100.00;102307.53;5074765;28;45441;-85
2024/02/21 00:06:59;;;;;;;;;0.00;0.00;;;;;12.17;100.00;102311.78;5074342;28;45402;-85
2024/02/21 00:09:27;;;;;;;;;2.25;2.25;;;;;12.08;100.00;102306.63;5077343;28;45395;-85
2024/02/21 00:12:05;;;;;;;;;;;;;;;;;;;;;
2024/02/21 00:14:34;;;;;;;;;0.00;0.00;;;;;12.17;100.00;102308.31;5076012;27;73997;-86
2024/02/21 00:16:59;;;;;;;;;0.00;0.00;;;;;12.12;100.00;102313.56;5078141;28;45251;-85
2024/02/21 00:19:42;;;;;;;;;0.00;0.00;;;;;12.15;100.00;102316.13;5078087;28;45531;-85
2024/02/21 00:22:08;;;;;;;;;0.00;0.00;;;;;12.08;100.00;102283.16;5078501;27;46410;-85
2024/02/21 00:24:33;;;;;;;;;0.00;0.00;;;;;12.15;100.00;102281.34;5077391;28;45267;-85
2024/02/21 00:27:01;;;;;;;;;0.75;0.75;;;;;12.08;100.00;102271.84;5077643;28;45289;-84
2024/02/21 00:29:27;;;;;;;;;0.00;0.00;;;;;12.08;100.00;102282.28;5078940;27;45340;-85
2024/02/21 00:31:52;;;;;;;;;0.00;0.00;;;;;12.13;100.00;102285.72;5077325;28;45414;-85
2024/02/21 00:34:25;;;;;;;;;0.00;0.00;;;;;12.08;100.00;102272.72;5078886;28;45394;-84
2024/02/21 00:36:55;;;;;;;;;0.00;0.00;;;;;12.07;100.00;102273.59;5076928;28;45380;-85
2024/02/21 00:39:43;;;;;;;;;;;;;;;;;;;;;
2024/02/21 00:42:09;;;;;;;;;0.00;0.00;;;;;12.07;100.00;102272.72;5076282;27;76399;-85
2024/02/21 00:44:44;;;;;;;;;0.00;0.00;;;;;12.03;100.00;102258.84;5078509;27;45355;-85
2024/02/21 00:47:15;;;;;;;;;0.00;0.00;;;;;12.12;100.00;102257.88;5077577;28;45273;-85
2024/02/21 00:49:40;;;;;;;;;0.00;0.00;;;;;12.10;100.00;102239.63;5060575;28;45633;-85
2024/02/21 00:52:13;;;;;;;;;0.00;0.00;;;;;12.16;100.00;102238.69;5059753;28;47169;-85
2024/02/21 00:54:49;;;;;;;;;0.00;0.00;;;;;12.31;100.00;102250.69;5077126;28;45400;-85
2024/02/21 00:57:14;;;;;;;;;0.00;0.00;;;;;12.33;100.00;102244.59;5077667;27;45378;-85
2024/02/21 00:59:52;;;;;;;;;;;;;;;;;;;;;
2024/02/21 01:02:20;;;;;;;;;0.00;0.00;;;;;12.33;100.00;102228.94;5077233;28;75391;-85
2024/02/21 01:04:48;;;;;;;;;0.00;0.00;;;;;12.27;100.00;102209.84;5077881;27;45483;-84
2024/02/21 01:07:23;;;;;;;;;0.00;0.00;;;;;12.33;100.00;102215.88;5077478;28;45437;-86
2024/02/21 01:09:50;;;;;;;;;0.00;0.00;;;;;12.36;100.00;102209.72;5077159;28;45435;-85
2024/02/21 01:12:16;;;;;;;;;0.00;0.00;;;;;12.36;100.00;102202.75;5078020;27;45433;-84
2024/02/21 01:14:41;;;;;;;;;7.00;7.00;;;;;12.37;100.00;102217.56;5077401;27;58206;-85
2024/02/21 01:17:06;;;;;;;;;0.00;0.00;;;;;12.38;100.00;102214.03;5076225;28;55255;-85
2024/02/21 01:19:32;;;;;;;;;0.00;0.00;;;;;12.43;100.00;102192.25;5075735;28;45530;-85
2024/02/21 01:21:57;;;;;;;;;0.00;0.00;;;;;12.41;100.00;102197.50;5076466;28;52288;-85
2024/02/21 01:24:24;;;;;;;;;0.00;0.00;;;;;12.44;100.00;102209.63;5077515;27;46400;-85
2024/02/21 01:26:49;;;;;;;;;0.00;0.00;;;;;12.44;100.00;102199.19;5076648;28;45325;-85
2024/02/21 01:29:14;;;;;;;;;0.00;0.00;;;;;12.48;100.00;102219.13;5078027;27;45217;-85
2024/02/21 01:31:45;;;;;;;;;0.00;0.00;;;;;12.52;100.00;102213.03;5076399;28;61054;-85
2024/02/21 01:34:13;;;;;;;;;0.00;0.00;;;;;12.52;100.00;102189.50;5076792;28;45369;-85
2024/02/21 01:36:39;;;;;;;;;0.00;0.00;;;;;12.52;100.00;102187.75;5093300;27;45253;-85
2024/02/21 01:39:05;;;;;;;;;0.00;0.00;;;;;12.57;100.00;102174.63;5076350;28;45380;-85
2024/02/21 01:41:31;;;;;;;;;0.00;0.00;;;;;12.53;100.00;102172.94;5077263;27;46045;-84
2024/02/21 01:43:56;;;;;;;;;0.00;0.00;;;;;12.59;100.00;102198.97;5083974;27;45341;-84
2024/02/21 01:46:22;;;;;;;;;0.00;0.00;;;;;12.53;100.00;102193.84;5096245;27;59303;-85
2024/02/21 01:48:47;;;;;;;;;0.00;0.00;;;;;12.52;100.00;102185.16;5096291;27;45467;-85
2024/02/21 01:51:14;;;;;;;;;0.00;0.00;;;;;12.52;100.00;102179.91;5074980;27;47833;-85
2024/02/21 01:53:43;;;;;;;;;0.00;0.00;;;;;12.51;100.00;102170.34;5056678;28;45355;-84
2024/02/21 01:56:08;;;;;;;;;0.00;0.00;;;;;12.48;100.00;102151.25;5055932;28;45360;-85
2024/02/21 01:58:41;;;;;;;;;0.00;0.00;;;;;12.54;100.00;102157.25;5055836;28;45553;-85
2024/02/21 02:01:06;;;;;;;;;0.00;0.00;;;;;12.48;100.00;102135.56;5055497;28;46272;-85
2024/02/21 02:03:32;;;;;;;;;0.75;0.75;;;;;12.52;100.00;102142.50;5089372;27;45641;-85
2024/02/21 02:05:57;;;;;;;;;0.00;0.00;;;;;12.43;100.00;102126.97;5055638;28;45312;-84
2024/02/21 02:08:23;;;;;;;;;0.00;0.00;;;;;12.40;100.00;102133.06;5055943;28;45308;-84
2024/02/21 02:10:48;;;;;;;;;0.00;0.00;;;;;12.34;100.00;102126.19;5089244;27;46326;-85
2024/02/21 02:13:14;;;;;;;;;0.00;0.00;;;;;12.32;100.00;102134.94;5054326;28;74356;-85
2024/02/21 02:15:46;;;;;;;;;0.00;0.00;;;;;12.29;100.00;102132.38;5056963;28;45398;-84
2024/02/21 02:18:12;;;;;;;;;0.00;0.00;;;;;12.24;100.00;102135.06;5055189;28;45375;-84
2024/02/21 02:20:38;;;;;;;;;0.00;0.00;;;;;12.25;100.00;102126.31;5056842;28;46218;-85
2024/02/21 02:23:20;;;;;;;;;0.00;0.00;;;;;12.23;100.00;102122.88;5055312;28;45282;-84
2024/02/21 02:25:49;;;;;;;;;0.00;0.00;;;;;12.24;100.00;102121.09;5056526;28;45403;-84
2024/02/21 02:28:14;;;;;;;;;0.00;0.00;;;;;12.26;100.00;102119.34;5055583;28;45509;-85
2024/02/21 02:30:40;;;;;;;;;0.00;0.00;;;;;12.24;100.00;102106.34;5055503;28;45762;-85
2024/02/21 02:33:05;;;;;;;;;0.00;0.00;;;;;12.20;100.00;102110.72;5053997;28;45261;-85
2024/02/21 02:35:35;;;;;;;;;0.00;0.00;;;;;12.15;100.00;102091.66;5057006;28;45431;-84
2024/02/21 02:38:00;;;;;;;;;0.00;0.00;;;;;12.20;100.00;102099.41;5055120;28;45384;-85
2024/02/21 02:40:26;;;;;;;;;0.00;0.00;;;;;12.20;100.00;102089.84;5055343;28;45369;-84
2024/02/21 02:42:54;;;;;;;;;0.00;0.00;;;;;12.21;100.00;102088.09;5088993;27;45714;-85
2024/02/21 02:45:19;;;;;;;;;0.00;0.00;;;;;12.23;100.00;102090.69;5074768;28;45415;-85
2024/02/21 02:47:48;;;;;;;;;0.67;0.67;;;;;12.30;100.00;102087.09;5075956;27;57170;-84
2024/02/21 02:50:14;;;;;;;;;0.00;0.00;;;;;12.27;100.00;102074.09;5075064;28;46350;-85
2024/02/21 02:52:39;;;;;;;;;0.00;0.00;;;;;12.31;100.00;102076.66;5075402;28;45403;-85
2024/02/21 02:55:05;;;;;;;;;0.00;0.00;;;;;12.29;100.00;102067.09;5075092;28;46089;-85
2024/02/21 02:57:31;;;;;;;;;0.00;0.00;;;;;12.33;100.00;102058.31;5076549;27;45503;-84
2024/02/21 02:59:56;;;;;;;;;0.00;0.00;;;;;12.33;100.00;102063.53;5075167;28;47269;-85
2024/02/21 03:02:22;;;;;;;;;0.00;0.00;;;;;12.37;100.00;102052.19;5074758;28;45367;-84
2024/02/21 03:04:47;;;;;;;;;0.00;0.00;;;;;12.36;100.00;102038.25;5076546;28;45221;-85
2024/02/21 03:07:14;;;;;;;;;0.00;0.00;;;;;12.33;100.00;102035.72;5075537;28;45371;-84
2024/02/21 03:09:39;;;;;;;;;0.00;0.00;;;;;12.30;100.00;102029.66;5075127;28;45377;-84
2024/02/21 03:12:06;;;;;;;;;0.00;0.00;;;;;12.34;100.00;102033.94;5074734;28;56626;-85
2024/02/21 03:14:32;;;;;;;;;0.00;0.00;;;;;12.36;100.00;102019.97;5075096;28;45657;-84
2024/02/21 03:17:01;;;;;;;;;0.50;0.50;;;;;12.37;100.00;102003.44;5074626;28;45887;-85
2024/02/21 03:19:26;;;;;;;;;0.00;0.00;;;;;12.34;100.00;101994.78;5074909;27;48002;-84
2024/02/21 03:21:52;;;;;;;;;0.00;0.00;;;;;12.34;100.00;102011.31;5076276;28;45311;-84
2024/02/21 03:24:18;;;;;;;;;0.00;0.00;;;;;12.34;100.00;102011.31;5074362;28;54775;-85
2024/02/21 03:26:44;;;;;;;;;0.00;0.00;;;;;12.22;100.00;101984.53;5074184;28;61250;-85
2024/02/21 03:29:11;;;;;;;;;0.00;0.00;;;;;12.30;100.00;101993.97;5074785;28;46222;-85
2024/02/21 03:31:36;;;;;;;;;0.00;0.00;;;;;12.28;100.00;101994.91;5074480;28;45420;-84
2024/02/21 03:34:01;;;;;;;;;4.00;4.00;;;;;12.21;100.00;101970.63;5075077;28;45413;-84
2024/02/21 03:36:27;;;;;;;;;0.00;0.00;;;;;12.19;100.00;101969.78;5074097;28;65891;-85
2024/02/21 03:38:52;;;;;;;;;0.00;0.00;;;;;12.10;100.00;101986.44;5075640;28;45993;-85
2024/02/21 03:41:17;;;;;;;;;0.00;0.00;;;;;12.11;100.00;101998.63;5057296;28;55369;-84
2024/02/21 03:43:43;;;;;;;;;0.00;0.00;;;;;12.07;100.00;101994.34;5076371;28;45401;-84
2024/02/21 03:46:08;;;;;;;;;0.00;0.00;;;;;12.10;100.00;101991.66;5077339;28;55081;-84
2024/02/21 03:48:34;;;;;;;;;0.00;0.00;;;;;12.08;100.00;101995.19;5077597;28;66505;-85
2024/02/21 03:50:59;;;;;;;;;0.00;0.00;;;;;12.10;100.00;102004.72;5061883;28;47030;-84
2024/02/21 03:53:24;;;;;;;;;0.00;0.00;;;;;12.09;100.00;101999.50;5073887;28;62731;-84
2024/02/21 03:55:50;;;;;;;;;0.00;0.00;;;;;12.09;100.00;102000.41;5058833;28;45302;-84
2024/02/21 03:58:15;;;;;;;;;0.00;0.00;;;;;12.16;100.00;101988.09;5058168;28;59986;-84
2024/02/21 04:00:41;;;;;;;;;0.00;0.00;;;;;12.16;100.00;101981.13;5058014;28;62082;-85
2024/02/21 04:03:06;;;;;;;;;0.00;0.00;;;;;12.17;100.00;101977.63;5057698;28;45471;-85
2024/02/21 04:05:31;;;;;;;;;0.50;0.50;;;;;12.15;100.00;101981.16;5057015;28;61748;-84
2024/02/21 04:07:57;;;;;;;;;0.00;0.00;;;;;12.16;100.00;101975.91;5057601;28;45405;-85
2024/02/21 04:10:22;;;;;;;;;0.00;0.00;;;;;12.15;100.00;101982.03;5057223;28;55990;-84
2024/02/21 04:12:50;;;;;;;;;0.00;0.00;;;;;12.19;100.00;101965.41;5057360;28;45795;-84
2024/02/21 04:15:15;;;;;;;;;0.00;0.00;;;;;12.25;100.00;101956.63;5058418;28;45642;-85
2024/02/21 04:17:41;;;;;;;;;3.00;3.00;;;;;12.26;100.00;101962.69;5058263;28;47106;-84
2024/02/21 04:20:08;;;;;;;;;0.00;0.00;;;;;12.23;100.00;101953.19;5056415;28;68488;-84
2024/02/21 04:22:34;;;;;;;;;0.00;0.00;;;;;12.26;100.00;101954.88;5057209;28;45423;-84
2024/02/21 04:25:00;;;;;;;;;0.00;0.00;;;;;12.22;100.00;101937.53;5040281;28;45387;-85
2024/02/21 04:27:25;;;;;;;;;0.00;0.00;;;;;12.25;100.00;101951.41;5058554;28;46197;-84
2024/02/21 04:29:50;;;;;;;;;0.00;0.00;;;;;12.23;100.00;101966.25;5057451;28;65641;-85
2024/02/21 04:32:16;;;;;;;;;0.00;0.00;;;;;12.24;100.00;101947.09;5039823;28;64198;-85
2024/02/21 04:34:41;;;;;;;;;0.00;0.00;;;;;12.23;100.00;101907.94;5057722;28;67393;-85
2024/02/21 04:37:06;;;;;;;;;0.00;0.00;;;;;12.23;100.00;101916.63;5039089;28;71042;-85
2024/02/21 04:39:32;;;;;;;;;0.00;0.00;;;;;12.17;100.00;101919.34;5057752;28;57997;-85
2024/02/21 04:41:57;;;;;;;;;0.00;0.00;;;;;12.19;100.00;101947.16;5058180;28;45414;-85
2024/02/21 04:44:23;;;;;;;;;0.00;0.00;;;;;12.21;100.00;101949.75;5069556;28;45304;-84
2024/02/21 04:46:48;;;;;;;;;0.00;0.00;;;;;12.14;100.00;101922.00;5076899;28;52928;-85
2024/02/21 04:49:13;;;;;;;;;0.00;0.00;;;;;12.07;100.00;101941.25;5077100;28;45348;-84
2024/02/21 04:51:40;;;;;;;;;0.00;0.00;;;;;12.09;100.00;101942.97;5077216;28;45374;-84
2024/02/21 04:54:05;;;;;;;;;0.00;0.00;;;;;12.07;100.00;101938.66;5077940;28;45307;-84
2024/02/21 04:56:31;;;;;;;;;0.00;0.00;;;;;12.04;100.00;101950.00;5076206;28;46657;-84
2024/02/21 04:58:56;;;;;;;;;0.00;0.00;;;;;12.03;100.00;101930.00;5078279;27;45347;-85
2024/02/21 05:01:21;;;;;;;;;0.00;0.00;;;;;12.00;100.00;101896.16;5076903;28;45259;-84
2024/02/21 05:03:47;;;;;;;;;0.00;0.00;;;;;12.00;100.00;101903.97;5077522;28;59523;-84
2024/02/21 05:06:12;;;;;;;;;1.00;1.00;;;;;11.93;100.00;101892.78;5076630;28;46128;-84
2024/02/21 05:08:37;;;;;;;;;0.00;0.00;;;;;11.93;100.00;101902.34;5076231;28;65245;-84
2024/02/21 05:11:03;;;;;;;;;0.00;0.00;;;;;11.90;100.00;101913.69;5076428;28;45355;-84
2024/02/21 05:13:28;;;;;;;;;0.00;0.00;;;;;11.88;100.00;101919.78;5076750;28;45507;-84
2024/02/21 05:15:53;;;;;;;;;0.00;0.00;;;;;11.87;100.00;101918.94;5075678;28;71119;-84
2024/02/21 05:18:20;;;;;;;;;0.00;0.00;;;;;11.83;100.00;101901.63;5075585;28;69001;-84
2024/02/21 05:20:45;;;;;;;;;0.00;0.00;;;;;11.82;100.00;101908.56;5077863;28;45301;-85
2024/02/21 05:23:11;;;;;;;;;0.00;0.00;;;;;11.83;100.00;101893.78;5076752;28;45545;-85
2024/02/21 05:25:36;;;;;;;;;0.00;0.00;;;;;11.81;100.00;101895.53;5075982;28;45302;-84
2024/02/21 05:28:03;;;;;;;;;0.00;0.00;;;;;11.80;100.00;101897.28;5077042;28;65683;-85
2024/02/21 05:30:28;;;;;;;;;0.75;0.75;;;;;11.76;100.00;101890.41;5076688;27;45261;-84
2024/02/21 05:32:54;;;;;;;;;0.00;0.00;;;;;11.77;100.00;101886.88;5077926;27;45553;-84
2024/02/21 05:35:21;;;;;;;;;0.00;0.00;;;;;11.75;100.00;101879.97;5076282;28;46573;-84
2024/02/21 05:37:48;;;;;;;;;0.00;0.00;;;;;11.71;100.00;101849.63;5074897;28;45544;-85
2024/02/21 05:40:14;;;;;;;;;0.00;0.00;;;;;11.67;100.00;101853.16;5061128;28;45507;-85
2024/02/21 05:42:39;;;;;;;;;0.00;0.00;;;;;11.69;100.00;101861.81;5076499;28;45349;-84
2024/02/21 05:45:05;;;;;;;;;6.00;6.00;;;;;11.68;100.00;101847.94;5074598;28;69625;-84
2024/02/21 05:47:30;;;;;;;;;0.00;0.00;;;;;11.70;100.00;101846.16;5076209;28;45520;-84
2024/02/21 05:49:55;;;;;;;;;0.00;0.00;;;;;11.66;100.00;101854.03;5077448;28;45358;-84
2024/02/21 05:52:21;;;;;;;;;0.00;0.00;;;;;11.71;100.00;101855.69;5074978;28;69136;-84
2024/02/21 05:54:46;;;;;;;;;0.00;0.00;;;;;11.68;100.00;101860.09;5076689;27;45537;-84
2024/02/21 05:57:12;;;;;;;;;0.00;0.00;;;;;11.60;100.00;101860.22;5076103;28;45298;-83
2024/02/21 05:59:41;;;;;;;;;0.00;0.00;;;;;11.62;100.00;101864.50;5077243;27;45382;-85
2024/02/21 06:02:07;;;;;;;;;0.00;0.00;;;;;11.61;100.00;101852.38;5077373;27;45605;-85
2024/02/21 06:04:32;;;;;;;;;1.00;1.00;;;;;11.57;100.00;101866.34;5075760;28;47289;-84
2024/02/21 06:06:58;;;;;;;;;0.00;0.00;;;;;11.59;100.00;101843.72;5075511;28;45343;-84
2024/02/21 06:09:23;;;;;;;;;0.00;0.00;;;;;11.58;100.00;101823.72;5075602;28;45354;-84
2024/02/21 06:11:49;;;;;;;;;0.00;0.00;;;;;11.57;100.00;101808.09;5075118;28;65822;-84
2024/02/21 06:14:14;;;;;;;;;1.00;1.00;;;;;11.59;100.00;101782.88;5076283;27;45631;-84
2024/02/21 06:16:39;;;;;;;;;0.00;0.00;;;;;11.60;100.00;101800.25;5075050;28;56624;-84
2024/02/21 06:19:05;;;;;;;;;0.00;0.00;;;;;11.61;100.00;101797.59;5075487;28;45538;-84
2024/02/21 06:21:30;;;;;;;;;0.00;0.00;;;;;11.63;100.00;101808.88;5074670;28;70600;-84
2024/02/21 06:23:55;;;;;;;;;0.00;0.00;;;;;11.61;100.00;101797.59;5074969;28;46455;-85
2024/02/21 06:26:21;;;;;;;;;0.00;0.00;;;;;11.59;100.00;101807.22;5074453;28;71811;-85
2024/02/21 06:28:46;;;;;;;;;0.00;0.00;;;;;11.56;100.00;101806.38;5075334;28;46391;-84
2024/02/21 06:31:12;;;;;;;;;0.00;0.00;;;;;11.59;100.00;101806.34;5075523;28;45519;-84
2024/02/21 06:33:37;;;;;;;;;0.00;0.00;;;;;11.59;100.00;101809.81;5075251;28;47188;-84
2024/02/21 06:36:03;;;;;;;;;0.00;0.00;;;;;11.54;100.00;101795.13;5074561;28;68507;-85
2024/02/21 06:38:28;;;;;;;;;0.00;0.00;;;;;11.59;100.00;101796.78;5075901;27;45337;-84
2024/02/21 06:40:54;;;;;;;;;0.00;0.00;;;;;11.55;100.00;101784.69;5074932;28;51465;-84
2024/02/21 06:43:20;;;;;;;;;0.00;0.00;;;;;11.57;100.00;101790.72;5074662;27;45562;-84
2024/02/21 06:45:51;;;;;;;;;0.00;0.00;;;;;11.53;100.00;101793.41;5075326;28;45238;-83
2024/02/21 06:48:17;;;;;;;;;0.00;0.00;;;;;11.57;100.00;101784.63;5076336;27;45419;-84
2024/02/21 06:50:42;;;;;;;;;0.00;0.00;;;;;11.52;100.00;101783.88;5074709;27;45552;-84
2024/02/21 06:53:08;;;;;;;;;0.00;0.00;;;;;11.52;100.00;101779.50;5057851;28;47958;-84
2024/02/21 06:55:33;;;;;;;;;0.00;0.00;;;;;11.52;100.00;101773.44;5057669;28;66204;-84
2024/02/21 06:57:58;;;;;;;;;0.00;0.00;;;;;11.47;100.00;101770.03;5075315;27;64817;-83
2024/02/21 07:00:25;;;;;;;;;0.00;0.00;;;;;11.52;100.00;101766.47;5075028;28;45561;-84
2024/02/21 07:02:51;;;;;;;;;0.00;0.00;;;;;11.58;100.00;101758.53;5074560;28;46766;-84
2024/02/21 07:05:16;;;;;;;;;0.00;0.00;;;;;11.54;100.00;101754.25;5074133;28;61780;-84
2024/02/21 07:07:41;;;;;;;;;0.00;0.00;;;;;11.53;100.00;101739.50;5075916;27;45268;-84
2024/02/21 07:10:07;;;;;;;;;0.00;0.00;;;;;11.60;100.00;101751.53;5074400;28;70223;-84
2024/02/21 07:12:33;;;;;;;;;0.00;0.00;;;;;11.61;100.00;101755.03;5074113;28;47198;-84
2024/02/21 07:14:58;;;;;;;;;0.00;0.00;;;;;11.55;100.00;101742.97;5074780;28;45276;-83
2024/02/21 07:17:24;;;;;;;;;0.00;0.00;;;;;11.55;100.00;101757.72;5073959;28;67666;-84
2024/02/21 07:19:49;;;;;;;;;0.00;0.00;;;;;11.53;100.00;101752.53;5078995;27;52840;-84
2024/02/21 07:22:14;;;;;;;;;0.00;0.00;;;;;11.61;100.00;101762.84;5079383;27;45326;-83
2024/02/21 07:24:40;;;;;;;;;0.00;0.00;;;;;11.63;100.00;101767.16;5077600;28;51893;-85
2024/02/21 07:27:05;;;;;;;;;0.00;0.00;;;;;11.66;100.00;101773.19;5077806;28;46758;-85
2024/02/21 07:29:36;;;;;;;;;0.00;0.00;;;;;11.67;100.00;101772.31;5077533;28;47409;-84
2024/02/21 07:32:02;;;;;;;;;0.00;0.00;;;;;11.67;100.00;101773.16;5076546;27;46621;-84
2024/02/21 07:34:27;;;;;;;;;0.00;0.00;;;;;11.70;100.00;101773.13;5079395;27;45364;-87
2024/02/21 07:36:53;;;;;;;;;0.00;0.00;;;;;11.72;100.00;101773.09;5071363;28;45789;-83
2024/02/21 07:39:18;;;;;;;;;0.00;0.00;;;;;11.77;100.00;101776.47;5076112;27;68267;-81
2024/02/21 07:41:46;;;;;;;;;0.00;0.00;;;;;11.78;100.00;101776.44;5077412;27;46019;-82
2024/02/21 07:44:11;;;;;;;;;0.00;0.00;;;;;11.82;100.00;101775.50;5078828;27;45797;-82
2024/02/21 07:46:36;;;;;;;;;0.00;0.00;;;;;11.81;100.00;101763.38;5081566;27;45547;-82
2024/02/21 07:49:02;;;;;;;;;0.00;0.00;;;;;11.78;100.00;101765.16;5086440;27;45492;-82
2024/02/21 07:51:28;;;;;;;;;0.00;0.00;;;;;11.81;100.00;101765.09;5076442;28;47106;-82
2024/02/21 07:53:53;;;;;;;;;0.00;0.00;;;;;11.89;100.00;101765.84;5078548;28;45444;-82
2024/02/21 07:56:18;;;;;;;;;0.00;0.00;;;;;11.88;100.00;101764.09;5076547;28;63338;-83
2024/02/21 07:58:44;;;;;;;;;0.00;0.00;;;;;11.94;100.00;101764.03;5078807;27;45536;-83
2024/02/21 08:01:10;;;;;;;;;0.00;0.00;;;;;11.92;100.00;101750.16;5078075;28;56804;-83
2024/02/21 08:03:35;;;;;;;;;0.00;0.00;;;;;11.92;100.00;101738.84;5076758;28;45392;-83
2024/02/21 08:06:01;;;;;;;;;0.00;0.00;;;;;12.04;100.00;101743.00;5077296;28;66561;-82
2024/02/21 08:08:27;;;;;;;;;0.00;0.00;;;;;12.07;100.00;101740.31;5111495;27;45407;-83
2024/02/21 08:10:52;;;;;;;;;0.00;0.00;;;;;12.07;100.00;101725.53;5085847;27;47765;-83
2024/02/21 08:13:18;;;;;;;;;0.00;0.00;;;;;12.09;100.00;101715.94;5075981;28;70305;-81
2024/02/21 08:15:44;;;;;;;;;0.00;0.00;;;;;12.12;100.00;101712.38;5076654;28;45529;-80
2024/02/21 08:18:09;;;;;;;;;0.00;0.00;;;;;12.12;100.00;101705.41;5075268;28;45584;-80
2024/02/21 08:20:35;;;;;;;;;0.00;0.00;;;;;12.16;100.00;101701.84;5074694;28;66362;-82
2024/02/21 08:23:00;;;;;;;;;0.00;0.00;;;;;12.21;100.00;101688.72;5076319;28;54320;-80
2024/02/21 08:25:26;;;;;;;;;0.00;0.00;;;;;12.16;100.00;101700.97;5076787;27;45488;-83
2024/02/21 08:27:51;;;;;;;;;4.00;4.00;;;;;12.19;100.00;101698.31;5077038;28;45659;-84
2024/02/21 08:30:17;;;;;;;;;0.00;0.00;;;;;12.23;100.00;101683.47;5077086;28;45544;-83
2024/02/21 08:32:42;;;;;;;;;0.00;0.00;;;;;12.28;100.00;101679.88;5076392;28;45491;-82
2024/02/21 08:35:10;;;;;;;;;0.00;0.00;;;;;12.31;100.00;101679.81;5076659;28;45322;-85
2024/02/21 08:37:42;;;;;;;;;0.00;0.00;;;;;12.38;100.00;101683.13;5075831;28;45586;-85
2024/02/21 08:40:08;;;;;;;;;0.00;0.00;;;;;12.38;100.00;101681.38;5074650;28;47134;-81
2024/02/21 08:42:35;;;;;;;;;0.00;0.00;;;;;12.45;100.00;101676.03;5075890;28;45443;-82
2024/02/21 08:45:00;;;;;;;;;0.00;0.00;;;;;12.43;100.00;101665.63;5084477;27;45474;-82
2024/02/21 08:47:25;;;;;;;;;0.00;0.00;;;;;12.50;100.00;101651.53;5097086;27;62238;-81
2024/02/21 08:49:51;;;;;;;;;0.00;0.00;;;;;12.54;100.00;101668.84;5083100;27;45518;-81
2024/02/21 08:52:16;;;;;;;;;0.00;0.00;;;;;12.55;100.00;101670.56;5074799;28;67969;-81
2024/02/21 08:54:44;;;;;;;;;0.00;0.00;;;;;12.47;100.00;101666.41;5061096;27;67945;-83
2024/02/21 08:57:09;;;;;;;;;0.00;0.00;;;;;12.54;100.00;101647.97;5082728;27;45354;-82
2024/02/21 08:59:34;;;;;;;;;0.00;0.00;;;;;12.56;100.00;101647.94;5080954;27;66720;-81
2024/02/21 09:02:00;;;;;;;;;0.00;0.00;;;;;12.66;100.00;101640.72;5066942;27;45369;-82
2024/02/21 09:04:25;;;;;;;;;0.00;0.00;;;;;12.74;100.00;101625.72;5112873;27;69236;-82
2024/02/21 09:06:52;;;;;;;;;0.00;0.00;;;;;12.75;100.00;101625.69;5103711;27;70335;-82
2024/02/21 09:09:17;;;;;;;;;0.00;0.00;;;;;12.82;100.00;101629.03;5081438;27;46074;-82
2024/02/21 09:11:43;;;;;;;;;0.00;0.00;;;;;12.88;100.00;101628.03;5068138;27;67343;-82
2024/02/21 09:14:08;;;;;;;;;0.00;0.00;;;;;12.90;100.00;101618.38;5081403;27;45384;-82
2024/02/21 09:16:33;;;;;;;;;0.00;0.00;;;;;13.00;100.00;101613.78;5088371;27;64888;-82
2024/02/21 09:18:59;;;;;;;;;0.00;0.00;;;;;13.05;100.00;101612.78;5082215;27;46464;-82
2024/02/21 09:21:24;;;;;;;;;0.00;0.00;;;;;13.06;100.00;101590.13;5103357;27;45416;-82
2024/02/21 09:23:50;;;;;;;;;3.00;3.00;;;;;13.06;100.00;101593.59;5108259;27;45414;-82
2024/02/21 09:26:16;;;;;;;;;0.00;0.00;;;;;13.09;100.00;101575.22;5064921;27;67427;-82
2024/02/21 09:28:42;;;;;;;;;0.00;0.00;;;;;13.14;100.00;101580.31;5088146;27;46466;-81
2024/02/21 09:31:08;;;;;;;;;0.50;0.50;;;;;13.16;100.00;101594.22;5085071;27;45494;-84
2024/02/21 09:33:33;;;;;;;;;0.00;0.00;;;;;13.24;100.00;101588.78;5085135;27;48407;-82
2024/02/21 09:35:59;;;;;;;;;0.50;0.00;;;;;13.28;100.00;101578.22;5083801;27;45397;-81
2024/02/21 09:38:24;;;;;;;;;0.00;0.00;;;;;13.30;100.00;101586.00;5115778;27;46109;-82
2024/02/21 09:41:00;;;;;;;;;0.00;0.00;;;;;13.39;100.00;101575.34;5086375;27;45832;-82
2024/02/21 09:43:26;;;;;;;;;0.00;0.00;;;;;13.38;100.00;101567.53;5085040;27;45339;-82
2024/02/21 09:45:56;;;;;;;;;0.00;0.00;;;;;13.41;100.00;101570.03;5109121;27;63726;-81
2024/02/21 09:48:42;;;;;;;;;0.00;0.00;;;;;13.47;100.00;101562.06;5085079;27;46099;-82
2024/02/21 09:51:09;;;;;;;;;0.00;0.00;;;;;13.53;100.00;101575.78;5091823;27;45756;-81
2024/02/21 09:53:37;;;;;;;;;0.00;0.00;;;;;13.44;100.00;101560.34;5123312;27;52478;-81
2024/02/21 09:56:03;;;;;;;;;0.00;0.00;;;;;13.48;100.00;101562.00;5085459;27;45614;-82
2024/02/21 09:58:29;;;;;;;;;0.00;0.00;;;;;13.53;100.00;101549.63;5079088;27;46821;-81
2024/02/21 10:00:54;;;;;;;;;0.00;0.00;;;;;13.62;100.00;101550.28;5080786;27;60406;-82
2024/02/21 10:03:20;;;;;;;;;0.00;0.00;;;;;13.67;100.00;101558.84;5076684;27;45556;-81
2024/02/21 10:05:49;;;;;;;;;0.00;0.00;;;;;13.80;100.00;101543.66;5096662;27;45331;-82
2024/02/21 10:08:15;;;;;;;;;0.00;0.00;;;;;13.82;100.00;101532.25;5096780;27;45351;-82
2024/02/21 10:10:44;;;;;;;;;0.00;0.00;;;;;13.96;100.00;101526.59;5096530;27;47834;-82
2024/02/21 10:13:11;;;;;;;;;0.00;0.00;;;;;14.05;100.00;101534.16;5097082;27;45315;-82
2024/02/21 10:15:36;;;;;;;;;0.00;0.00;;;;;14.17;100.00;101513.75;5091428;27;45476;-80
2024/02/21 10:18:03;;;;;;;;;0.00;0.00;;;;;14.20;100.00;101524.97;5086482;27;74339;-81
2024/02/21 10:20:29;;;;;;;;;0.00;0.00;;;;;14.21;100.00;101525.81;5089353;27;45748;-80
2024/02/21 10:23:02;;;;;;;;;0.00;0.00;;;;;14.25;100.00;101514.38;5068503;27;46624;-82
2024/02/21 10:25:27;;;;;;;;;0.00;0.00;;;;;14.31;100.00;101507.16;5067405;27;45551;-82
2024/02/21 10:27:53;;;;;;;;;0.00;0.00;;;;;14.39;100.00;101501.66;5075627;27;69275;-81
2024/02/21 10:30:20;;;;;;;;;0.00;0.00;;;;;14.50;100.00;101491.72;5074783;27;45444;-82
2024/02/21 10:32:50;;;;;;;;;0.00;0.00;;;;;14.60;100.00;101480.94;5091401;27;45827;-81
2024/02/21 10:35:34;;;;;;;;;0.00;0.00;;;;;14.60;100.00;101492.28;5071344;27;45532;-82
2024/02/21 10:38:00;;;;;;;;;0.00;0.00;;;;;14.53;100.00;101480.28;5075922;28;45379;-84
2024/02/21 10:40:27;;;;;;;;;0.00;0.00;;;;;14.61;100.00;101459.06;5074597;27;45376;-81
2024/02/21 10:42:58;;;;;;;;;0.00;0.00;;;;;14.63;100.00;101449.41;5074731;28;45676;-82
2024/02/21 10:45:32;;;;;;;;;0.00;0.00;;;;;14.70;100.00;101441.25;5066041;27;45587;-83
2024/02/21 10:48:13;;;;;;;;;0.00;0.00;;;;;14.79;100.00;101434.00;5076030;27;46311;-83
2024/02/21 10:50:57;;;;;;;;;0.00;0.00;;;;;14.72;100.00;101438.59;5076056;27;45404;-83
2024/02/21 10:53:26;;;;;;;;;0.00;0.00;;;;;14.82;100.00;101439.13;5067460;28;45566;-85
2024/02/21 10:56:00;;;;;;;;;0.00;0.00;;;;;14.80;100.00;101426.09;5091047;27;45609;-83
2024/02/21 10:58:25;;;;;;;;;0.00;0.00;;;;;14.80;100.00;101427.84;5094833;27;47155;-84
2024/02/21 11:00:53;;;;;;;;;0.00;0.00;;;;;14.74;100.00;101420.22;5076274;27;45677;-84
2024/02/21 11:03:19;;;;;;;;;0.00;0.00;;;;;14.73;100.00;101428.97;5074679;28;45351;-83
2024/02/21 11:05:45;;;;;;;;;1.25;1.25;;;;;14.77;100.00;101433.22;5079299;27;70183;-85
2024/02/21 11:08:10;;;;;;;;;0.00;0.00;;;;;14.67;100.00;101403.84;5076123;27;46456;-84
2024/02/21 11:10:36;;;;;;;;;0.00;0.00;;;;;14.63;100.00;101407.47;5085809;27;73739;-86
2024/02/21 11:13:09;;;;;;;;;0.00;0.00;;;;;14.59;100.00;101396.25;5071042;27;45685;-85
2024/02/21 11:15:34;;;;;;;;;0.00;0.00;;;;;14.61;100.00;101394.44;5075151;27;45510;-84
2024/02/21 11:17:59;;;;;;;;;0.00;0.00;;;;;14.59;100.00;101372.66;5090665;27;74446;-84
2024/02/21 11:20:50;;;;;;;;;0.00;0.00;;;;;14.65;100.00;101380.34;5073936;27;63830;-83